createdAt,value
2018-03-01T00:00:07.555Z,-7.20
2018-03-01T00:01:07.530Z,-7.15
2018-03-01T00:02:07.628Z,-7.16
2018-03-01T00:03:07.418Z,-7.19
2018-03-01T00:04:07.384Z,-7.27
2018-03-01T00:05:07.347Z,-7.27
2018-03-01T00:06:07.403Z,-7.26
2018-03-01T00:07:07.267Z,-7.28
2018-03-01T00:08:07.232Z,-7.20
2018-03-01T00:09:07.196Z,-7.28
2018-03-01T00:10:07.157Z,-7.22
2018-03-01T00:11:07.163Z,-7.27
2018-03-01T00:12:07.132Z,-7.26
2018-03-01T00:13:07.089Z,-7.24
2018-03-01T00:14:07.009Z,-7.27
2018-03-01T00:15:06.988Z,-7.30
2018-03-01T00:16:07.758Z,-7.31
2018-03-01T00:17:06.904Z,-7.38
2018-03-01T00:18:06.966Z,-7.28
2018-03-01T00:19:06.824Z,-7.44
2018-03-01T00:20:06.792Z,-7.28
2018-03-01T00:21:06.793Z,-7.37
2018-03-01T00:22:06.726Z,-7.47
2018-03-01T00:23:06.678Z,-7.31
2018-03-01T00:24:06.644Z,-7.38
2018-03-01T00:25:06.609Z,-7.38
2018-03-01T00:26:06.901Z,-7.38
2018-03-01T00:27:06.533Z,-7.44
2018-03-01T00:28:06.498Z,-7.47
2018-03-01T00:29:06.458Z,-7.40
2018-03-01T00:30:06.435Z,-7.48
2018-03-01T00:31:06.429Z,-7.48
2018-03-01T00:32:06.353Z,-7.44
2018-03-01T00:33:06.312Z,-7.37
2018-03-01T00:34:06.272Z,-7.45
2018-03-01T00:35:06.278Z,-7.44
2018-03-01T00:36:06.199Z,-7.45
2018-03-01T00:37:06.166Z,-7.47
2018-03-01T00:38:06.131Z,-7.59
2018-03-01T00:39:06.091Z,-7.44
2018-03-01T00:40:06.099Z,-7.51
2018-03-01T00:41:06.013Z,-7.56
2018-03-01T00:42:05.979Z,-7.52
2018-03-01T00:43:05.982Z,-7.52
2018-03-01T00:44:05.906Z,-7.49
2018-03-01T00:45:05.865Z,-7.62
2018-03-01T00:46:05.834Z,-7.65
2018-03-01T00:47:05.795Z,-7.66
2018-03-01T00:48:05.793Z,-7.65
2018-03-01T00:49:05.741Z,-7.62
2018-03-01T00:50:05.699Z,-7.65
2018-03-01T00:51:05.658Z,-7.59
2018-03-01T00:52:05.607Z,-7.65
2018-03-01T00:53:05.618Z,-7.62
2018-03-01T00:54:05.535Z,-7.63
2018-03-01T00:55:05.496Z,-7.67
2018-03-01T00:56:05.459Z,-7.67
2018-03-01T00:57:05.429Z,-7.56
2018-03-01T00:58:05.435Z,-7.70
2018-03-01T00:59:05.347Z,-7.65
2018-03-01T01:00:05.355Z,-7.65
2018-03-01T01:01:05.273Z,-7.65
2018-03-01T01:02:05.244Z,-7.72
2018-03-01T01:03:05.202Z,-7.76
2018-03-01T01:04:05.200Z,-7.75
2018-03-01T01:05:05.130Z,-7.87
2018-03-01T01:06:05.089Z,-7.80
2018-03-01T01:07:05.056Z,-7.80
2018-03-01T01:08:05.016Z,-7.80
2018-03-01T01:09:05.018Z,-7.83
2018-03-01T01:10:04.982Z,-7.84
2018-03-01T01:11:04.904Z,-7.86
2018-03-01T01:12:04.904Z,-7.84
2018-03-01T01:13:04.831Z,-7.84
2018-03-01T01:14:04.850Z,-7.83
2018-03-01T01:15:04.757Z,-7.83
2018-03-01T01:16:04.720Z,-7.84
2018-03-01T01:17:04.727Z,-7.81
2018-03-01T01:18:04.645Z,-7.86
2018-03-01T01:19:04.619Z,-7.84
2018-03-01T01:20:04.618Z,-7.83
2018-03-01T01:21:04.530Z,-7.81
2018-03-01T01:22:04.553Z,-7.83
2018-03-01T01:23:04.460Z,-7.80
2018-03-01T01:24:04.420Z,-7.93
2018-03-01T01:25:04.452Z,-7.96
2018-03-01T01:26:04.374Z,-7.91
2018-03-01T01:27:04.313Z,-7.88
2018-03-01T01:28:04.271Z,-7.86
2018-03-01T01:29:04.236Z,-7.96
2018-03-01T01:30:04.239Z,-7.90
2018-03-01T01:31:04.229Z,-7.96
2018-03-01T01:32:04.129Z,-7.98
2018-03-01T01:33:04.148Z,-7.96
2018-03-01T01:34:04.053Z,-7.99
2018-03-01T01:35:04.012Z,-7.96
2018-03-01T01:36:04.027Z,-8.02
2018-03-01T01:37:03.939Z,-8.07
2018-03-01T01:38:03.901Z,-8.09
2018-03-01T01:39:03.872Z,-8.03
2018-03-01T01:40:03.827Z,-8.06
2018-03-01T01:41:03.840Z,-8.05
2018-03-01T01:42:03.751Z,-8.10
2018-03-01T01:43:03.712Z,-8.15
2018-03-01T01:44:03.674Z,-8.21
2018-03-01T01:45:03.649Z,-8.18
2018-03-01T01:46:03.645Z,-8.15
2018-03-01T01:47:03.570Z,-8.15
2018-03-01T01:48:03.578Z,-8.18
2018-03-01T01:49:03.494Z,-8.15
2018-03-01T01:50:03.472Z,-8.15
2018-03-01T01:51:03.413Z,-8.13
2018-03-01T01:52:03.419Z,-8.16
2018-03-01T01:53:03.339Z,-8.15
2018-03-01T01:54:03.303Z,-8.13
2018-03-01T01:55:03.268Z,-8.15
2018-03-01T01:56:03.278Z,-8.15
2018-03-01T01:57:03.239Z,-8.15
2018-03-01T01:58:03.177Z,-8.18
2018-03-01T01:59:03.195Z,-8.16
2018-03-01T02:00:03.082Z,-8.20
2018-03-01T02:01:03.060Z,-8.15
2018-03-01T02:02:03.063Z,-8.16
2018-03-01T02:03:02.975Z,-8.18
2018-03-01T02:04:02.926Z,-8.26
2018-03-01T02:05:02.891Z,-8.27
2018-03-01T02:06:02.912Z,-8.34
2018-03-01T02:07:02.816Z,-8.31
2018-03-01T02:08:02.802Z,-8.31
2018-03-01T02:09:02.908Z,-8.38
2018-03-01T02:10:02.717Z,-8.36
2018-03-01T02:11:02.669Z,-8.34
2018-03-01T02:12:02.631Z,-8.48
2018-03-01T02:13:02.597Z,-8.33
2018-03-01T02:14:02.595Z,-8.38
2018-03-01T02:15:02.521Z,-8.46
2018-03-01T02:16:02.786Z,-8.48
2018-03-01T02:17:02.489Z,-8.41
2018-03-01T02:18:02.405Z,-8.46
2018-03-01T02:19:02.388Z,-8.46
2018-03-01T02:20:02.371Z,-8.38
2018-03-01T02:21:02.297Z,-8.46
2018-03-01T02:22:02.301Z,-8.39
2018-03-01T02:23:02.258Z,-8.45
2018-03-01T02:24:02.185Z,-8.51
2018-03-01T02:25:02.147Z,-8.41
2018-03-01T02:26:02.106Z,-8.41
2018-03-01T02:27:02.124Z,-8.44
2018-03-01T02:28:02.033Z,-8.45
2018-03-01T02:29:01.999Z,-8.44
2018-03-01T02:30:01.968Z,-8.49
2018-03-01T02:31:01.942Z,-8.48
2018-03-01T02:32:01.939Z,-8.54
2018-03-01T02:33:01.846Z,-8.56
2018-03-01T02:34:01.811Z,-8.51
2018-03-01T02:35:01.771Z,-8.49
2018-03-01T02:36:01.735Z,-8.63
2018-03-01T02:37:01.746Z,-8.52
2018-03-01T02:38:01.670Z,-8.56
2018-03-01T02:39:01.620Z,-8.60
2018-03-01T02:40:01.583Z,-8.56
2018-03-01T02:41:01.550Z,-8.54
2018-03-01T02:42:01.555Z,-8.54
2018-03-01T02:43:01.474Z,-8.65
2018-03-01T02:44:01.484Z,-8.67
2018-03-01T02:45:01.400Z,-8.65
2018-03-01T02:46:01.367Z,-8.69
2018-03-01T02:47:01.362Z,-8.56
2018-03-01T02:48:01.338Z,-8.65
2018-03-01T02:49:01.246Z,-8.70
2018-03-01T02:50:01.213Z,-8.66
2018-03-01T02:51:01.171Z,-8.72
2018-03-01T02:52:01.143Z,-8.78
2018-03-01T02:53:01.133Z,-8.63
2018-03-01T02:54:01.060Z,-8.83
2018-03-01T02:55:01.018Z,-8.76
2018-03-01T02:56:00.978Z,-8.65
2018-03-01T02:57:00.996Z,-8.72
2018-03-01T02:58:01.745Z,-8.66
2018-03-01T02:59:00.865Z,-8.65
2018-03-01T03:00:00.837Z,-8.78
2018-03-01T03:01:00.797Z,-8.78
2018-03-01T03:02:00.811Z,-8.80
2018-03-01T03:03:00.716Z,-8.77
2018-03-01T03:04:00.682Z,-8.76
2018-03-01T03:05:00.641Z,-8.72
2018-03-01T03:06:00.603Z,-8.77
2018-03-01T03:07:02.388Z,-8.70
2018-03-01T03:08:00.528Z,-8.83
2018-03-01T03:09:00.495Z,-8.86
2018-03-01T03:10:01.342Z,-8.86
2018-03-01T03:11:00.414Z,-8.76
2018-03-01T03:12:00.415Z,-8.76
2018-03-01T03:13:00.342Z,-8.81
2018-03-01T03:14:00.304Z,-8.81
2018-03-01T03:15:00.318Z,-8.83
2018-03-01T03:16:00.262Z,-8.90
2018-03-01T03:17:00.193Z,-8.90
2018-03-01T03:18:00.402Z,-8.90
2018-03-01T03:19:00.233Z,-8.80
2018-03-01T03:20:00.119Z,-8.74
2018-03-01T03:21:00.043Z,-8.81
2018-03-01T03:22:00.013Z,-8.84
2018-03-01T03:22:59.970Z,-8.87
2018-03-01T03:24:00.746Z,-8.88
2018-03-01T03:25:00.397Z,-8.83
2018-03-01T03:26:00.021Z,-8.98
2018-03-01T03:26:59.816Z,-8.95
2018-03-01T03:27:59.782Z,-8.99
2018-03-01T03:28:59.736Z,-8.88
2018-03-01T03:29:59.716Z,-8.98
2018-03-01T03:30:59.708Z,-8.95
2018-03-01T03:32:00.346Z,-9.05
2018-03-01T03:32:59.585Z,-9.04
2018-03-01T03:33:59.554Z,-9.04
2018-03-01T03:34:59.513Z,-8.98
2018-03-01T03:35:59.978Z,-9.05
2018-03-01T03:36:59.436Z,-8.99
2018-03-01T03:37:59.413Z,-9.01
2018-03-01T03:38:59.420Z,-8.90
2018-03-01T03:39:59.322Z,-8.98
2018-03-01T03:40:59.333Z,-8.99
2018-03-01T03:41:59.249Z,-8.94
2018-03-01T03:42:59.206Z,-8.98
2018-03-01T03:43:59.400Z,-8.99
2018-03-01T03:44:59.171Z,-8.96
2018-03-01T03:45:59.136Z,-8.99
2018-03-01T03:46:59.067Z,-8.99
2018-03-01T03:47:59.077Z,-9.01
2018-03-01T03:49:01.835Z,-9.06
2018-03-01T03:49:58.989Z,-9.08
2018-03-01T03:50:58.995Z,-9.05
2018-03-01T03:51:58.868Z,-8.99
2018-03-01T03:52:58.831Z,-9.06
2018-03-01T03:53:58.801Z,-9.04
2018-03-01T03:54:58.755Z,-9.04
2018-03-01T03:55:58.890Z,-9.04
2018-03-01T03:56:58.681Z,-9.06
2018-03-01T03:57:58.643Z,-9.01
2018-03-01T03:58:58.603Z,-9.06
2018-03-01T04:00:00.389Z,-9.12
2018-03-01T04:00:58.530Z,-9.04
2018-03-01T04:01:58.493Z,-9.06
2018-03-01T04:02:58.457Z,-9.01
2018-03-01T04:03:59.338Z,-9.05
2018-03-01T04:04:58.383Z,-9.09
2018-03-01T04:05:58.380Z,-9.09
2018-03-01T04:06:58.303Z,-9.16
2018-03-01T04:07:58.272Z,-9.13
2018-03-01T04:08:58.839Z,-9.19
2018-03-01T04:09:58.190Z,-9.05
2018-03-01T04:10:58.210Z,-9.08
2018-03-01T04:11:58.120Z,-9.08
2018-03-01T04:12:58.841Z,-9.16
2018-03-01T04:13:58.042Z,-9.22
2018-03-01T04:14:57.999Z,-9.17
2018-03-01T04:15:58.017Z,-9.25
2018-03-01T04:16:58.837Z,-9.22
2018-03-01T04:17:57.897Z,-9.22
2018-03-01T04:18:57.850Z,-9.19
2018-03-01T04:19:57.818Z,-9.15
2018-03-01T04:20:57.823Z,-9.17
2018-03-01T04:21:57.889Z,-9.22
2018-03-01T04:22:57.724Z,-9.17
2018-03-01T04:23:57.663Z,-9.20
2018-03-01T04:24:57.626Z,-9.25
2018-03-01T04:25:57.582Z,-9.22
2018-03-01T04:26:57.885Z,-9.22
2018-03-01T04:27:57.514Z,-9.22
2018-03-01T04:28:57.473Z,-9.20
2018-03-01T04:29:58.342Z,-9.22
2018-03-01T04:30:57.393Z,-9.20
2018-03-01T04:31:57.411Z,-9.23
2018-03-01T04:32:57.322Z,-9.23
2018-03-01T04:33:57.310Z,-9.27
2018-03-01T04:34:57.841Z,-9.26
2018-03-01T04:35:57.251Z,-9.25
2018-03-01T04:36:57.230Z,-9.27
2018-03-01T04:37:57.833Z,-9.27
2018-03-01T04:38:57.093Z,-9.26
2018-03-01T04:39:57.052Z,-9.36
2018-03-01T04:40:57.012Z,-9.34
2018-03-01T04:41:57.412Z,-9.31
2018-03-01T04:42:56.952Z,-9.33
2018-03-01T04:43:56.903Z,-9.33
2018-03-01T04:44:56.864Z,-9.36
2018-03-01T04:45:56.846Z,-9.37
2018-03-01T04:46:56.919Z,-9.33
2018-03-01T04:47:56.792Z,-9.37
2018-03-01T04:48:56.717Z,-9.27
2018-03-01T04:49:56.675Z,-9.34
2018-03-01T04:50:57.334Z,-9.34
2018-03-01T04:51:56.601Z,-9.37
2018-03-01T04:52:56.610Z,-9.44
2018-03-01T04:53:56.519Z,-9.38
2018-03-01T04:54:56.486Z,-9.53
2018-03-01T04:55:57.335Z,-9.48
2018-03-01T04:56:56.417Z,-9.55
2018-03-01T04:57:56.426Z,-9.44
2018-03-01T04:58:56.335Z,-9.40
2018-03-01T04:59:56.306Z,-9.45
2018-03-01T05:00:56.836Z,-9.53
2018-03-01T05:01:56.220Z,-9.65
2018-03-01T05:02:56.233Z,-9.47
2018-03-01T05:03:56.189Z,-9.50
2018-03-01T05:04:56.104Z,-9.50
2018-03-01T05:05:56.067Z,-9.47
2018-03-01T05:06:56.031Z,-9.53
2018-03-01T05:07:55.988Z,-9.52
2018-03-01T05:08:55.995Z,-9.56
2018-03-01T05:09:55.932Z,-9.60
2018-03-01T05:10:55.908Z,-9.50
2018-03-01T05:11:55.877Z,-9.60
2018-03-01T05:12:55.796Z,-9.47
2018-03-01T05:13:55.779Z,-9.63
2018-03-01T05:14:56.336Z,-9.57
2018-03-01T05:15:55.784Z,-9.57
2018-03-01T05:16:55.651Z,-9.62
2018-03-01T05:17:55.609Z,-9.62
2018-03-01T05:18:55.894Z,-9.62
2018-03-01T05:19:56.297Z,-9.60
2018-03-01T05:20:55.501Z,-9.65
2018-03-01T05:21:56.338Z,-9.56
2018-03-01T05:22:55.426Z,-9.63
2018-03-01T05:23:55.428Z,-9.62
2018-03-01T05:24:56.331Z,-9.63
2018-03-01T05:25:55.308Z,-9.66
2018-03-01T05:26:55.271Z,-9.59
2018-03-01T05:27:55.226Z,-9.62
2018-03-01T05:28:55.390Z,-9.71
2018-03-01T05:29:55.198Z,-9.70
2018-03-01T05:30:55.118Z,-9.73
2018-03-01T05:31:55.837Z,-9.70
2018-03-01T05:32:55.033Z,-9.68
2018-03-01T05:33:55.005Z,-9.73
2018-03-01T05:34:55.022Z,-9.73
2018-03-01T05:35:55.834Z,-9.73
2018-03-01T05:36:54.887Z,-9.71
2018-03-01T05:37:54.856Z,-9.70
2018-03-01T05:38:55.335Z,-9.80
2018-03-01T05:39:54.815Z,-9.73
2018-03-01T05:40:54.737Z,-9.65
2018-03-01T05:41:54.700Z,-9.73
2018-03-01T05:42:55.342Z,-9.76
2018-03-01T05:43:54.622Z,-9.77
2018-03-01T05:44:54.631Z,-9.77
2018-03-01T05:45:54.542Z,-9.74
2018-03-01T05:46:55.378Z,-9.78
2018-03-01T05:47:54.494Z,-9.80
2018-03-01T05:48:54.430Z,-9.73
2018-03-01T05:49:54.906Z,-9.73
2018-03-01T05:50:54.351Z,-9.74
2018-03-01T05:51:54.313Z,-9.73
2018-03-01T05:52:54.834Z,-9.83
2018-03-01T05:53:54.249Z,-9.83
2018-03-01T05:54:54.240Z,-9.84
2018-03-01T05:55:55.849Z,-9.81
2018-03-01T05:56:54.129Z,-9.86
2018-03-01T05:57:56.832Z,-9.81
2018-03-01T05:58:54.737Z,-9.80
2018-03-01T05:59:54.403Z,-9.81
2018-03-01T06:00:54.835Z,-9.92
2018-03-01T06:01:54.737Z,-9.81
2018-03-01T06:02:54.738Z,-9.88
2018-03-01T06:03:54.831Z,-9.88
2018-03-01T06:04:53.916Z,-9.94
2018-03-01T06:05:54.334Z,-9.91
2018-03-01T06:06:55.737Z,-9.94
2018-03-01T06:07:53.700Z,-9.94
2018-03-01T06:08:53.670Z,-9.97
2018-03-01T06:09:54.334Z,-9.89
2018-03-01T06:10:53.589Z,-9.94
2018-03-01T06:11:53.602Z,-9.98
2018-03-01T06:12:53.507Z,-9.94
2018-03-01T06:13:54.332Z,-9.92
2018-03-01T06:14:53.474Z,-9.91
2018-03-01T06:15:53.389Z,-9.88
2018-03-01T06:16:53.389Z,-9.92
2018-03-01T06:17:55.835Z,-9.97
2018-03-01T06:18:53.335Z,-9.95
2018-03-01T06:19:53.244Z,-9.89
2018-03-01T06:20:53.198Z,-9.98
2018-03-01T06:21:53.837Z,-9.86
2018-03-01T06:22:53.179Z,-9.95
2018-03-01T06:23:54.799Z,-9.91
2018-03-01T06:24:53.046Z,-9.94
2018-03-01T06:25:53.026Z,-9.99
2018-03-01T06:26:53.952Z,-9.84
2018-03-01T06:27:52.975Z,-9.94
2018-03-01T06:28:52.891Z,-9.92
2018-03-01T06:29:52.856Z,-9.95
2018-03-01T06:30:52.854Z,-9.94
2018-03-01T06:31:53.329Z,-9.95
2018-03-01T06:32:52.796Z,-9.97
2018-03-01T06:33:52.719Z,-9.95
2018-03-01T06:34:52.671Z,-9.86
2018-03-01T06:35:53.342Z,-9.84
2018-03-01T06:36:52.594Z,-9.91
2018-03-01T06:37:52.594Z,-9.83
2018-03-01T06:38:53.327Z,-9.76
2018-03-01T06:39:52.516Z,-9.77
2018-03-01T06:40:52.438Z,-9.86
2018-03-01T06:41:53.329Z,-9.88
2018-03-01T06:42:52.357Z,-9.78
2018-03-01T06:43:52.373Z,-9.80
2018-03-01T06:44:52.837Z,-9.77
2018-03-01T06:45:52.248Z,-9.70
2018-03-01T06:46:52.207Z,-9.77
2018-03-01T06:47:52.828Z,-9.77
2018-03-01T06:48:52.172Z,-9.71
2018-03-01T06:49:52.093Z,-9.71
2018-03-01T06:50:52.060Z,-9.80
2018-03-01T06:51:52.060Z,-9.76
2018-03-01T06:52:52.023Z,-9.70
2018-03-01T06:53:51.940Z,-9.63
2018-03-01T06:54:52.828Z,-9.66
2018-03-01T06:55:51.866Z,-9.76
2018-03-01T06:56:51.824Z,-9.73
2018-03-01T06:57:51.844Z,-9.76
2018-03-01T06:58:51.794Z,-9.71
2018-03-01T06:59:52.331Z,-9.76
2018-03-01T07:00:51.679Z,-9.73
2018-03-01T07:01:51.636Z,-9.73
2018-03-01T07:02:51.635Z,-9.68
2018-03-01T07:03:52.329Z,-9.62
2018-03-01T07:04:51.560Z,-9.63
2018-03-01T07:05:51.482Z,-9.59
2018-03-01T07:06:51.512Z,-9.63
2018-03-01T07:07:52.329Z,-9.55
2018-03-01T07:08:51.416Z,-9.60
2018-03-01T07:09:51.328Z,-9.60
2018-03-01T07:10:51.829Z,-9.60
2018-03-01T07:11:51.257Z,-9.59
2018-03-01T07:12:51.217Z,-9.57
2018-03-01T07:13:51.253Z,-9.66
2018-03-01T07:14:51.141Z,-9.45
2018-03-01T07:15:51.830Z,-9.50
2018-03-01T07:16:51.069Z,-9.40
2018-03-01T07:17:51.076Z,-9.41
2018-03-01T07:18:53.840Z,-9.41
2018-03-01T07:19:50.952Z,-9.36
2018-03-01T07:20:50.923Z,-9.38
2018-03-01T07:21:51.387Z,-9.36
2018-03-01T07:22:50.841Z,-9.25
2018-03-01T07:23:50.807Z,-9.29
2018-03-01T07:24:50.815Z,-9.27
2018-03-01T07:25:50.731Z,-9.22
2018-03-01T07:26:50.689Z,-9.23
2018-03-01T07:27:51.380Z,-9.05
2018-03-01T07:28:50.612Z,-9.16
2018-03-01T07:29:50.895Z,-8.98
2018-03-01T07:30:50.532Z,-9.04
2018-03-01T07:31:51.334Z,-8.95
2018-03-01T07:32:50.463Z,-8.90
2018-03-01T07:33:51.330Z,-8.96
2018-03-01T07:34:50.433Z,-8.86
2018-03-01T07:35:51.330Z,-8.77
2018-03-01T07:36:50.310Z,-8.77
2018-03-01T07:37:50.274Z,-8.70
2018-03-01T07:38:50.373Z,-8.74
2018-03-01T07:39:50.200Z,-8.60
2018-03-01T07:40:50.384Z,-8.59
2018-03-01T07:41:50.120Z,-8.49
2018-03-01T07:42:50.090Z,-8.45
2018-03-01T07:43:50.852Z,-8.49
2018-03-01T07:44:50.011Z,-8.38
2018-03-01T07:45:50.383Z,-8.27
2018-03-01T07:46:49.979Z,-8.31
2018-03-01T07:47:50.840Z,-8.24
2018-03-01T07:48:49.862Z,-8.20
2018-03-01T07:49:50.329Z,-8.12
2018-03-01T07:50:49.795Z,-8.09
2018-03-01T07:51:49.801Z,-8.02
2018-03-01T07:52:50.328Z,-7.98
2018-03-01T07:53:49.682Z,-7.90
2018-03-01T07:54:50.327Z,-7.81
2018-03-01T07:55:49.606Z,-7.75
2018-03-01T07:56:49.886Z,-7.66
2018-03-01T07:57:49.531Z,-7.51
2018-03-01T07:58:50.341Z,-7.54
2018-03-01T07:59:49.460Z,-7.49
2018-03-01T08:00:49.464Z,-7.37
2018-03-01T08:01:49.876Z,-7.33
2018-03-01T08:02:49.352Z,-7.19
2018-03-01T08:03:49.828Z,-7.09
2018-03-01T08:04:49.277Z,-7.09
2018-03-01T08:05:49.827Z,-7.02
2018-03-01T08:06:49.351Z,-6.91
2018-03-01T08:07:49.825Z,-6.80
2018-03-01T08:08:49.132Z,-6.71
2018-03-01T08:09:49.829Z,-6.70
2018-03-01T08:10:49.072Z,-6.62
2018-03-01T08:11:49.391Z,-6.44
2018-03-01T08:12:48.991Z,-6.28
2018-03-01T08:13:49.830Z,-6.19
2018-03-01T08:14:48.914Z,-6.15
2018-03-01T08:15:49.830Z,-5.84
2018-03-01T08:16:48.934Z,-5.80
2018-03-01T08:17:48.812Z,-5.52
2018-03-01T08:18:49.333Z,-5.59
2018-03-01T08:19:48.743Z,-5.50
2018-03-01T08:20:49.331Z,-5.56
2018-03-01T08:21:48.754Z,-5.44
2018-03-01T08:22:49.330Z,-5.40
2018-03-01T08:23:48.609Z,-5.29
2018-03-01T08:24:49.328Z,-5.23
2018-03-01T08:25:48.543Z,-5.08
2018-03-01T08:26:48.880Z,-5.01
2018-03-01T08:27:48.480Z,-4.94
2018-03-01T08:28:49.328Z,-4.87
2018-03-01T08:29:48.413Z,-4.73
2018-03-01T08:30:49.341Z,-4.93
2018-03-01T08:31:48.404Z,-4.97
2018-03-01T08:32:48.829Z,-4.79
2018-03-01T08:33:48.295Z,-4.53
2018-03-01T08:34:48.265Z,-4.33
2018-03-01T08:35:48.836Z,-4.23
2018-03-01T08:36:48.243Z,-4.22
2018-03-01T08:37:48.175Z,-4.01
2018-03-01T08:38:48.198Z,-4.06
2018-03-01T08:39:48.827Z,-3.91
2018-03-01T08:40:48.091Z,-3.94
2018-03-01T08:41:48.063Z,-3.79
2018-03-01T08:42:48.052Z,-3.83
2018-03-01T08:43:48.050Z,-3.66
2018-03-01T08:44:47.991Z,-3.65
2018-03-01T08:45:47.961Z,-3.57
2018-03-01T08:46:47.935Z,-3.40
2018-03-01T08:47:47.907Z,-3.66
2018-03-01T08:48:48.380Z,-3.75
2018-03-01T08:49:47.863Z,-3.76
2018-03-01T08:50:47.829Z,-3.83
2018-03-01T08:51:47.805Z,-3.86
2018-03-01T08:52:47.826Z,-3.79
2018-03-01T08:53:47.832Z,-3.61
2018-03-01T08:54:47.784Z,-3.40
2018-03-01T08:55:47.706Z,-3.22
2018-03-01T08:56:47.682Z,-3.30
2018-03-01T08:57:47.663Z,-3.15
2018-03-01T08:58:47.679Z,-3.07
2018-03-01T08:59:48.332Z,-2.99
2018-03-01T09:00:47.581Z,-3.15
2018-03-01T09:01:47.565Z,-3.14
2018-03-01T09:02:47.536Z,-3.15
2018-03-01T09:03:47.550Z,-3.12
2018-03-01T09:04:48.330Z,-3.00
2018-03-01T09:05:47.508Z,-2.94
2018-03-01T09:06:47.432Z,-2.83
2018-03-01T09:07:47.459Z,-2.79
2018-03-01T09:08:47.383Z,-2.79
2018-03-01T09:09:48.336Z,-2.81
2018-03-01T09:10:47.377Z,-2.62
2018-03-01T09:11:47.363Z,-2.67
2018-03-01T09:12:47.290Z,-2.79
2018-03-01T09:13:47.831Z,-2.82
2018-03-01T09:14:47.251Z,-2.82
2018-03-01T09:15:47.214Z,-3.07
2018-03-01T09:16:47.230Z,-3.25
2018-03-01T09:17:47.166Z,-3.35
2018-03-01T09:18:47.145Z,-3.29
2018-03-01T09:19:47.117Z,-3.36
2018-03-01T09:20:47.139Z,-3.22
2018-03-01T09:21:47.067Z,-3.11
2018-03-01T09:22:47.044Z,-3.03
2018-03-01T09:23:47.016Z,-2.94
2018-03-01T09:24:47.092Z,-2.72
2018-03-01T09:25:46.971Z,-2.39
2018-03-01T09:26:46.938Z,-2.12
2018-03-01T09:27:47.041Z,-2.10
2018-03-01T09:28:46.895Z,-2.10
2018-03-01T09:29:46.866Z,-2.05
2018-03-01T09:30:46.880Z,-2.09
2018-03-01T09:31:46.811Z,-2.21
2018-03-01T09:32:46.791Z,-2.10
2018-03-01T09:33:47.341Z,-2.14
2018-03-01T09:34:46.743Z,-1.91
2018-03-01T09:35:46.773Z,-1.89
2018-03-01T09:36:46.694Z,-1.60
2018-03-01T09:37:46.673Z,-1.45
2018-03-01T09:38:46.703Z,-1.58
2018-03-01T09:39:47.334Z,-1.67
2018-03-01T09:40:46.643Z,-1.52
2018-03-01T09:41:46.592Z,-1.38
2018-03-01T09:42:46.552Z,-1.30
2018-03-01T09:43:46.574Z,-1.43
2018-03-01T09:44:47.336Z,-1.68
2018-03-01T09:45:46.550Z,-2.05
2018-03-01T09:46:46.477Z,-2.39
2018-03-01T09:47:46.496Z,-2.40
2018-03-01T09:48:46.430Z,-2.37
2018-03-01T09:49:46.395Z,-2.47
2018-03-01T09:50:46.902Z,-2.42
2018-03-01T09:51:46.341Z,-2.40
2018-03-01T09:52:46.323Z,-2.46
2018-03-01T09:53:46.301Z,-2.32
2018-03-01T09:54:46.271Z,-2.09
2018-03-01T09:55:46.300Z,-1.91
2018-03-01T09:56:46.220Z,-1.78
2018-03-01T09:57:46.235Z,-1.42
2018-03-01T09:58:46.216Z,-1.30
2018-03-01T09:59:46.148Z,-1.19
2018-03-01T10:00:46.128Z,-0.95
2018-03-01T10:01:46.182Z,-0.85
2018-03-01T10:02:46.116Z,-0.92
2018-03-01T10:03:46.101Z,-0.73
2018-03-01T10:04:46.035Z,-0.54
2018-03-01T10:05:46.013Z,-0.70
2018-03-01T10:06:45.986Z,-0.66
2018-03-01T10:07:46.398Z,-0.67
2018-03-01T10:08:45.978Z,-0.64
2018-03-01T10:09:45.919Z,-0.49
2018-03-01T10:10:45.946Z,-0.36
2018-03-01T10:11:45.872Z,-0.31
2018-03-01T10:12:45.852Z,-0.22
2018-03-01T10:13:45.832Z,0.01
2018-03-01T10:14:46.796Z,0.37
2018-03-01T10:15:45.911Z,0.52
2018-03-01T10:16:45.764Z,0.58
2018-03-01T10:17:45.819Z,0.85
2018-03-01T10:18:45.715Z,1.02
2018-03-01T10:19:45.701Z,1.03
2018-03-01T10:20:45.736Z,1.20
2018-03-01T10:21:45.661Z,1.33
2018-03-01T10:22:45.640Z,1.57
2018-03-01T10:23:45.618Z,1.48
2018-03-01T10:24:45.598Z,1.64
2018-03-01T10:25:45.627Z,1.79
2018-03-01T10:26:46.376Z,1.86
2018-03-01T10:27:45.906Z,2.04
2018-03-01T10:28:45.553Z,1.93
2018-03-01T10:29:45.498Z,1.75
2018-03-01T10:30:45.481Z,1.72
2018-03-01T10:31:46.350Z,1.69
2018-03-01T10:32:45.438Z,1.74
2018-03-01T10:33:45.468Z,1.89
2018-03-01T10:34:45.404Z,1.84
2018-03-01T10:35:45.389Z,2.09
2018-03-01T10:36:45.372Z,2.33
2018-03-01T10:37:45.395Z,2.31
2018-03-01T10:38:45.375Z,2.38
2018-03-01T10:39:45.848Z,2.20
2018-03-01T10:40:45.292Z,2.23
2018-03-01T10:41:45.280Z,2.12
2018-03-01T10:42:45.256Z,2.18
2018-03-01T10:43:45.299Z,2.29
2018-03-01T10:44:45.222Z,2.27
2018-03-01T10:45:45.853Z,2.30
2018-03-01T10:46:45.182Z,2.60
2018-03-01T10:47:45.194Z,2.78
2018-03-01T10:48:45.203Z,3.05
2018-03-01T10:49:45.129Z,3.30
2018-03-01T10:50:45.854Z,3.56
2018-03-01T10:51:45.100Z,3.56
2018-03-01T10:52:45.073Z,3.53
2018-03-01T10:53:45.109Z,3.64
2018-03-01T10:54:45.036Z,3.72
2018-03-01T10:55:45.402Z,3.84
2018-03-01T10:56:45.007Z,3.79
2018-03-01T10:57:45.059Z,3.86
2018-03-01T10:58:44.968Z,3.81
2018-03-01T10:59:45.005Z,3.71
2018-03-01T11:00:45.856Z,3.84
2018-03-01T11:01:44.918Z,3.60
2018-03-01T11:02:44.902Z,3.60
2018-03-01T11:03:44.880Z,3.51
2018-03-01T11:04:44.907Z,3.67
2018-03-01T11:05:44.906Z,3.60
2018-03-01T11:06:44.839Z,3.82
2018-03-01T11:07:44.899Z,3.57
2018-03-01T11:08:44.813Z,3.72
2018-03-01T11:09:44.784Z,3.58
2018-03-01T11:10:44.925Z,3.84
2018-03-01T11:11:44.751Z,4.17
2018-03-01T11:12:44.731Z,4.14
2018-03-01T11:13:44.720Z,4.21
2018-03-01T11:14:44.707Z,4.24
2018-03-01T11:15:44.773Z,4.46
2018-03-01T11:16:45.365Z,4.56
2018-03-01T11:17:44.746Z,4.46
2018-03-01T11:18:44.632Z,4.44
2018-03-01T11:19:44.626Z,4.46
2018-03-01T11:20:44.639Z,4.24
2018-03-01T11:21:44.589Z,4.15
2018-03-01T11:22:44.923Z,4.14
2018-03-01T11:23:44.599Z,4.14
2018-03-01T11:24:44.532Z,4.07
2018-03-01T11:25:44.515Z,3.79
2018-03-01T11:26:44.507Z,3.74
2018-03-01T11:27:44.529Z,3.54
2018-03-01T11:28:44.506Z,3.54
2018-03-01T11:29:44.453Z,3.84
2018-03-01T11:30:44.433Z,4.07
2018-03-01T11:31:44.415Z,4.38
2018-03-01T11:32:44.408Z,4.26
2018-03-01T11:33:44.439Z,4.18
2018-03-01T11:34:44.383Z,4.36
2018-03-01T11:35:44.448Z,4.58
2018-03-01T11:36:44.338Z,4.79
2018-03-01T11:37:44.424Z,4.72
2018-03-01T11:38:44.416Z,4.85
2018-03-01T11:39:44.298Z,4.94
2018-03-01T11:40:44.273Z,4.98
2018-03-01T11:41:44.256Z,5.18
2018-03-01T11:42:44.240Z,5.10
2018-03-01T11:43:44.265Z,4.97
2018-03-01T11:44:44.256Z,4.85
2018-03-01T11:45:44.188Z,4.98
2018-03-01T11:46:44.173Z,5.12
2018-03-01T11:47:44.168Z,5.44
2018-03-01T11:48:44.142Z,5.78
2018-03-01T11:49:44.177Z,6.39
2018-03-01T11:50:44.119Z,6.07
2018-03-01T11:51:44.878Z,5.75
2018-03-01T11:52:44.077Z,5.46
2018-03-01T11:53:44.065Z,5.60
2018-03-01T11:54:44.092Z,6.03
2018-03-01T11:55:44.046Z,6.52
2018-03-01T11:56:44.045Z,7.03
2018-03-01T11:57:44.778Z,7.23
2018-03-01T11:58:43.985Z,7.48
2018-03-01T11:59:44.008Z,7.22
2018-03-01T12:00:44.004Z,7.37
2018-03-01T12:01:43.942Z,7.15
2018-03-01T12:02:43.927Z,7.15
2018-03-01T12:03:43.918Z,7.31
2018-03-01T12:04:44.872Z,7.19
2018-03-01T12:05:43.925Z,7.12
2018-03-01T12:06:43.871Z,6.82
2018-03-01T12:07:43.861Z,6.76
2018-03-01T12:08:43.840Z,6.26
2018-03-01T12:09:43.831Z,6.25
2018-03-01T12:10:43.859Z,6.43
2018-03-01T12:11:43.801Z,5.98
2018-03-01T12:12:43.781Z,6.10
2018-03-01T12:13:43.776Z,6.51
2018-03-01T12:14:43.759Z,6.05
2018-03-01T12:15:43.778Z,5.78
2018-03-01T12:16:43.725Z,5.96
2018-03-01T12:17:43.749Z,6.06
2018-03-01T12:18:43.696Z,6.24
2018-03-01T12:19:43.691Z,5.87
2018-03-01T12:20:43.718Z,6.06
2018-03-01T12:21:43.658Z,6.05
2018-03-01T12:22:44.386Z,6.46
2018-03-01T12:23:43.624Z,6.24
2018-03-01T12:24:43.609Z,5.96
2018-03-01T12:25:43.645Z,6.07
2018-03-01T12:26:43.578Z,5.81
2018-03-01T12:27:44.383Z,6.06
2018-03-01T12:28:43.548Z,6.44
2018-03-01T12:29:43.533Z,6.51
2018-03-01T12:30:43.575Z,6.94
2018-03-01T12:31:43.508Z,7.05
2018-03-01T12:32:43.489Z,7.18
2018-03-01T12:33:43.499Z,7.11
2018-03-01T12:34:43.460Z,6.47
2018-03-01T12:35:43.502Z,6.75
2018-03-01T12:36:43.430Z,6.61
2018-03-01T12:37:44.389Z,6.46
2018-03-01T12:38:43.400Z,6.76
2018-03-01T12:39:43.395Z,6.68
2018-03-01T12:40:43.423Z,6.52
2018-03-01T12:41:43.361Z,6.31
2018-03-01T12:42:43.449Z,6.03
2018-03-01T12:43:43.341Z,6.39
2018-03-01T12:44:43.319Z,6.34
2018-03-01T12:45:43.340Z,6.29
2018-03-01T12:46:43.285Z,6.51
2018-03-01T12:47:43.361Z,6.25
2018-03-01T12:48:43.258Z,6.15
2018-03-01T12:49:43.242Z,5.91
2018-03-01T12:50:43.269Z,5.73
2018-03-01T12:51:43.226Z,5.87
2018-03-01T12:52:43.257Z,6.02
2018-03-01T12:53:43.186Z,6.00
2018-03-01T12:54:43.173Z,6.25
2018-03-01T12:55:43.161Z,6.07
2018-03-01T12:56:43.796Z,6.28
2018-03-01T12:57:43.208Z,6.47